createdAt,value
2019-02-07T00:02:47.692Z,64.72
2019-02-07T00:08:53.872Z,64.67
2019-02-07T00:14:59.724Z,64.99
2019-02-07T00:21:06.868Z,65.14
2019-02-07T00:27:12.994Z,64.75
2019-02-07T00:33:19.199Z,64.53
2019-02-07T00:39:25.192Z,63.85
2019-02-07T00:45:31.332Z,63.60
2019-02-07T00:51:37.789Z,63.75
2019-02-07T00:57:43.936Z,63.57
2019-02-07T01:03:49.761Z,63.66
2019-02-07T01:09:55.601Z,63.50
2019-02-07T01:16:01.468Z,64.08
2019-02-07T01:22:07.564Z,64.38
2019-02-07T01:28:13.673Z,64.49
2019-02-07T01:34:19.499Z,64.90
2019-02-07T01:40:25.190Z,64.96
2019-02-07T01:46:31.231Z,64.72
2019-02-07T01:52:37.211Z,65.22
2019-02-07T01:58:43.628Z,65.30
2019-02-07T02:04:49.365Z,65.39
2019-02-07T02:10:55.729Z,65.18
2019-02-07T02:17:01.455Z,65.40
2019-02-07T02:23:07.252Z,65.38
2019-02-07T02:29:13.154Z,65.47
2019-02-07T02:35:19.081Z,65.82
2019-02-07T02:41:24.956Z,65.82
2019-02-07T02:47:30.843Z,66.13
2019-02-07T02:53:36.848Z,66.16
2019-02-07T02:59:42.891Z,66.33
2019-02-07T03:06:06.497Z,66.35
2019-02-07T03:12:49.952Z,66.87
2019-02-07T03:19:11.936Z,66.80
2019-02-07T03:25:38.565Z,66.79
2019-02-07T03:32:01.867Z,67.13
2019-02-07T03:38:32.477Z,66.81
2019-02-07T03:45:00.291Z,66.59
2019-02-07T03:51:25.403Z,66.29
2019-02-07T03:57:52.861Z,66.19
2019-02-07T04:04:20.696Z,65.66
2019-02-07T04:10:43.120Z,65.34
2019-02-07T04:16:58.458Z,65.24
2019-02-07T04:23:21.899Z,65.22
2019-02-07T04:29:44.309Z,64.71
2019-02-07T04:36:27.329Z,64.43
2019-02-07T04:42:50.357Z,64.49
2019-02-07T04:49:13.835Z,64.75
2019-02-07T04:55:46.392Z,65.08
2019-02-07T05:02:20.223Z,64.82
2019-02-07T05:08:48.257Z,64.61
2019-02-07T05:15:13.199Z,64.09
2019-02-07T05:21:36.881Z,63.76
2019-02-07T05:27:54.277Z,63.75
2019-02-07T05:34:18.041Z,63.43
2019-02-07T05:40:58.259Z,63.53
2019-02-07T05:47:26.161Z,63.55
2019-02-07T05:54:00.189Z,63.84
2019-02-07T06:00:28.659Z,64.35
2019-02-07T06:06:53.045Z,64.58
2019-02-07T06:13:16.976Z,64.53
2019-02-07T06:19:35.409Z,64.63
2019-02-07T06:26:12.458Z,65.00
2019-02-07T06:32:43.139Z,65.47
2019-02-07T06:39:10.669Z,65.11
2019-02-07T06:45:38.673Z,64.62
2019-02-07T06:52:03.528Z,64.36
2019-02-07T06:58:27.240Z,63.76
2019-02-07T07:04:56.051Z,64.40
2019-02-07T07:11:20.172Z,65.35
2019-02-07T07:17:38.341Z,66.08
2019-02-07T07:24:01.747Z,66.90
2019-02-07T07:30:30.679Z,67.65
2019-02-07T07:36:51.114Z,68.52
2019-02-07T07:43:14.838Z,68.90
2019-02-07T07:49:48.456Z,68.60
2019-02-07T07:56:16.008Z,68.72
2019-02-07T08:02:30.899Z,68.62
2019-02-07T08:08:55.565Z,68.80
2019-02-07T08:15:19.085Z,68.64
2019-02-07T08:21:42.505Z,68.69
2019-02-07T08:28:14.514Z,68.30
2019-02-07T08:34:48.155Z,68.55
2019-02-07T08:41:28.337Z,68.69
2019-02-07T08:48:05.310Z,68.69
2019-02-07T08:54:39.657Z,68.99
2019-02-07T09:01:22.883Z,69.10
2019-02-07T09:07:46.465Z,69.18
2019-02-07T09:14:23.712Z,69.13
2019-02-07T09:20:48.622Z,69.34
2019-02-07T09:27:12.667Z,69.53
2019-02-07T09:33:52.870Z,69.69
2019-02-07T09:40:23.680Z,69.75
2019-02-07T09:46:54.160Z,67.48
2019-02-07T09:53:23.666Z,62.12
2019-02-07T09:59:54.963Z,60.54
2019-02-07T10:06:19.803Z,59.27
2019-02-07T10:12:44.611Z,59.07
2019-02-07T10:19:09.968Z,58.75
2019-02-07T10:25:29.732Z,58.34
2019-02-07T10:32:00.560Z,57.89
2019-02-07T10:38:24.327Z,58.09
2019-02-07T10:44:54.961Z,58.49
2019-02-07T10:51:18.200Z,58.09
2019-02-07T10:57:52.474Z,57.29
2019-02-07T11:04:26.236Z,57.18
2019-02-07T11:10:50.032Z,57.32
2019-02-07T11:17:17.705Z,57.17
2019-02-07T11:23:41.844Z,56.51
2019-02-07T11:30:14.003Z,55.12
2019-02-07T11:36:37.578Z,54.51
2019-02-07T11:43:02.396Z,55.25
2019-02-07T11:49:24.490Z,54.64
2019-02-07T11:56:08.446Z,53.79
2019-02-07T12:02:36.577Z,52.96
2019-02-07T12:08:52.723Z,52.44
2019-02-07T12:15:28.440Z,52.46
2019-02-07T12:21:52.911Z,51.99
2019-02-07T12:28:18.152Z,51.63
2019-02-07T12:34:42.915Z,51.95
2019-02-07T12:41:07.600Z,51.82
2019-02-07T12:47:33.654Z,51.14
2019-02-07T12:53:54.755Z,51.22
2019-02-07T13:00:16.814Z,50.98
2019-02-07T13:06:44.895Z,50.46
2019-02-07T13:13:08.417Z,50.07
2019-02-07T13:19:51.777Z,49.24
2019-02-07T13:26:34.638Z,49.66
2019-02-07T13:33:05.080Z,49.70
2019-02-07T13:39:30.130Z,49.27
2019-02-07T13:46:07.488Z,49.07
2019-02-07T13:52:35.508Z,49.17
2019-02-07T13:59:02.886Z,49.24
2019-02-07T14:05:29.177Z,48.45
2019-02-07T14:11:53.302Z,48.38
2019-02-07T14:18:32.913Z,48.32
2019-02-07T14:25:16.357Z,48.85
2019-02-07T14:31:47.481Z,48.57
2019-02-07T14:38:18.161Z,48.66
2019-02-07T14:44:41.905Z,48.55
2019-02-07T14:50:47.973Z,49.06
2019-02-07T14:56:54.176Z,49.29
2019-02-07T15:03:00.171Z,49.28
2019-02-07T15:09:18.436Z,49.22
2019-02-07T15:15:24.317Z,49.11
2019-02-07T15:21:30.152Z,49.56
2019-02-07T15:27:36.048Z,49.46
2019-02-07T15:33:41.883Z,49.37
2019-02-07T15:39:47.778Z,49.51
2019-02-07T15:45:53.630Z,49.97
2019-02-07T15:52:00.020Z,50.52
2019-02-07T15:58:06.326Z,50.96
2019-02-07T16:04:18.155Z,51.00
2019-02-07T16:10:23.964Z,50.97
2019-02-07T16:16:29.788Z,53.22
2019-02-07T16:22:35.547Z,56.56
2019-02-07T16:28:41.561Z,59.57
2019-02-07T16:34:47.474Z,60.37
2019-02-07T16:40:53.821Z,60.99
2019-02-07T16:46:59.971Z,61.24
2019-02-07T16:53:06.033Z,60.94
2019-02-07T16:59:11.853Z,60.53
2019-02-07T17:05:18.959Z,60.12
2019-02-07T17:11:24.984Z,59.44
2019-02-07T17:17:30.855Z,58.48
2019-02-07T17:23:38.390Z,58.00
2019-02-07T17:29:44.769Z,57.57
2019-02-07T17:35:51.047Z,57.17
2019-02-07T17:41:59.463Z,56.96
2019-02-07T17:48:05.010Z,56.93
2019-02-07T17:54:18.531Z,56.85
2019-02-07T18:01:01.709Z,56.87
2019-02-07T18:07:07.692Z,56.90
2019-02-07T18:13:14.166Z,56.98
2019-02-07T18:19:20.013Z,57.33
2019-02-07T18:25:25.975Z,57.42
2019-02-07T18:31:31.938Z,57.32
2019-02-07T18:37:38.636Z,57.71
2019-02-07T18:43:44.539Z,57.92
2019-02-07T18:49:50.572Z,58.18
2019-02-07T18:55:56.716Z,58.55
2019-02-07T19:02:04.780Z,58.70
2019-02-07T19:08:10.936Z,58.84
2019-02-07T19:14:17.133Z,58.80
2019-02-07T19:20:23.163Z,58.86
2019-02-07T19:26:29.214Z,59.03
2019-02-07T19:32:35.259Z,59.15
2019-02-07T19:38:41.189Z,59.67
2019-02-07T19:44:48.914Z,60.05
2019-02-07T19:50:55.110Z,60.27
2019-02-07T19:57:01.133Z,60.37
2019-02-07T20:03:07.499Z,60.64
2019-02-07T20:09:14.996Z,60.77
2019-02-07T20:15:30.712Z,60.94
2019-02-07T20:21:36.586Z,61.20
2019-02-07T20:27:42.427Z,61.37
2019-02-07T20:33:48.356Z,61.48
2019-02-07T20:39:54.147Z,61.48
2019-02-07T20:46:00.028Z,61.32
2019-02-07T20:52:06.461Z,61.25
2019-02-07T20:58:12.943Z,61.17
2019-02-07T21:04:18.716Z,61.19
2019-02-07T21:10:25.787Z,61.15
2019-02-07T21:16:33.557Z,61.15
2019-02-07T21:22:39.602Z,61.14
2019-02-07T21:28:45.655Z,61.05
2019-02-07T21:34:51.950Z,61.04
2019-02-07T21:40:58.026Z,61.03
2019-02-07T21:47:04.002Z,60.99
2019-02-07T21:53:10.128Z,61.03
2019-02-07T21:59:16.202Z,61.10
2019-02-07T22:05:22.364Z,61.15
2019-02-07T22:11:28.484Z,60.98
2019-02-07T22:17:34.393Z,60.98
2019-02-07T22:23:40.944Z,61.05
2019-02-07T22:29:46.951Z,61.07
2019-02-07T22:35:52.963Z,61.03
2019-02-07T22:41:58.867Z,61.05
2019-02-07T22:48:04.971Z,61.09
2019-02-07T22:54:11.137Z,61.07
2019-02-07T23:01:15.086Z,61.05
2019-02-07T23:07:21.739Z,60.96
2019-02-07T23:13:27.806Z,61.09
2019-02-07T23:19:33.755Z,61.05
2019-02-07T23:25:39.627Z,61.04
2019-02-07T23:31:45.661Z,61.04
2019-02-07T23:37:52.056Z,61.06
2019-02-07T23:43:58.080Z,61.12
2019-02-07T23:50:04.300Z,61.23
2019-02-07T23:56:10.774Z,61.59
